La Center, Washington
Current Conditions -  °F | °C
As of 7:53 PM on Friday 19 Dec 2014 (Local Time) from KSPB Reporting Station
Light Rain Light Rain  
Wind Chill: 45°   Ceiling: 2600
Heat Index: 47°   Visibility: 6mi
Dew Point: 44°   Wind: 5mph
Humidity: 90%   Direction: 200°SSW
Pressure: 29.96"   Gusts: NA
Location:  45.86°N, 122.67°W
Report Text: KSPB 200353Z AUTO 20004KT 6SM -RA BR OVC026 08/07 A2996 RMK AO2 RAB41 SLP146 P0001 T00830067
Loading
Personal Weather Stations






























Interactive Weather Map New forecast layout! Learn more

10-Day Weather Forecast

Advertisements
Track Severe Weather on mobile